Time;durP1;ratioP1;P1;durP2;ratioP2;P2;SDS_P1;SDS_P2;PMS_P1;PMS_P2;Temp;Humidity;BMP_temperature;BMP_pressure;BME280_temperature;BME280_humidity;BME280_pressure;Samples;Min_cycle;Max_cycle;Signal;HPM_P1;HPM_P2
2021/12/10 00:01:31;;;;;;;5.68;2.10;;;;;;;;;;4847056;29;20070;-77
2021/12/10 00:03:58;;;;;;;8.48;3.13;;;;;;;;;;4832483;29;20049;-76
2021/12/10 00:06:26;;;;;;;7.32;3.10;;;;;;;;;;4820599;29;20042;-76
2021/12/10 00:08:55;;;;;;;7.88;2.80;;;;;;;;;;4823906;29;20034;-76
2021/12/10 00:11:25;;;;;;;6.75;2.60;;;;;;;;;;4838662;29;20118;-76
2021/12/10 00:13:51;;;;;;;7.95;2.90;;;;;;;;;;4838090;29;20054;-77
2021/12/10 00:16:18;;;;;;;10.35;4.13;;;;;;;;;;4838246;29;20053;-76
2021/12/10 00:18:51;;;;;;;7.18;3.63;;;;;;;;;;4838478;29;20037;-77
2021/12/10 00:21:18;;;;;;;9.20;3.63;;;;;;;;;;4837883;29;20068;-77
2021/12/10 00:23:49;;;;;;;4.97;2.47;;;;;;;;;;4838956;29;20080;-76
2021/12/10 00:26:15;;;;;;;6.85;2.42;;;;;;;;;;4837867;29;20038;-76
2021/12/10 00:28:41;;;;;;;5.25;2.00;;;;;;;;;;4838756;29;20117;-76
2021/12/10 00:31:42;;;;;;;4.05;1.63;;;;;;;;;;4838037;29;20038;-76
2021/12/10 00:34:11;;;;;;;4.75;1.95;;;;;;;;;;4838922;29;20033;-76
2021/12/10 00:36:38;;;;;;;5.22;1.92;;;;;;;;;;4838047;29;20374;-77
2021/12/10 00:39:08;;;;;;;4.45;1.50;;;;;;;;;;4838811;29;20034;-77
2021/12/10 00:41:34;;;;;;;4.55;1.45;;;;;;;;;;4831209;29;20080;-77
2021/12/10 00:44:01;;;;;;;4.13;1.48;;;;;;;;;;4838756;29;20037;-76
2021/12/10 00:46:27;;;;;;;4.72;1.63;;;;;;;;;;4838673;29;20049;-77
2021/12/10 00:48:53;;;;;;;5.63;2.22;;;;;;;;;;4838328;29;20022;-77
2021/12/10 00:51:19;;;;;;;3.65;1.15;;;;;;;;;;4839177;29;20034;-76
2021/12/10 00:53:45;;;;;;;4.15;1.10;;;;;;;;;;4838453;29;20037;-76
2021/12/10 00:56:11;;;;;;;3.42;0.80;;;;;;;;;;4838872;29;20855;-77
2021/12/10 00:58:38;;;;;;;4.57;1.45;;;;;;;;;;4838282;29;20489;-76
2021/12/10 01:01:06;;;;;;;4.70;1.40;;;;;;;;;;4838922;29;20116;-76
2021/12/10 01:03:37;;;;;;;5.40;1.60;;;;;;;;;;4838161;29;20042;-76
2021/12/10 01:06:05;;;;;;;5.50;1.70;;;;;;;;;;4838975;29;20422;-76
2021/12/10 01:08:32;;;;;;;4.80;1.20;;;;;;;;;;4830493;29;20075;-76
2021/12/10 01:11:00;;;;;;;3.28;1.02;;;;;;;;;;4823797;29;20053;-77
2021/12/10 01:13:31;;;;;;;3.15;1.20;;;;;;;;;;4822773;29;20034;-76
2021/12/10 01:23:41;;;;;;;8.05;2.28;;;;;;;;;;4823682;29;20198;-77
2021/12/10 01:27:08;;;;;;;8.30;2.88;;;;;;;;;;4841289;29;20080;-77
2021/12/10 01:29:39;;;;;;;8.13;2.70;;;;;;;;;;4840631;29;20026;-77
2021/12/10 01:32:06;;;;;;;7.00;2.47;;;;;;;;;;4841532;29;20401;-76
2021/12/10 01:34:33;;;;;;;6.85;2.40;;;;;;;;;;4833735;29;20809;-76
2021/12/10 01:37:01;;;;;;;4.38;1.48;;;;;;;;;;4822996;29;20047;-77
2021/12/10 01:39:29;;;;;;;5.47;1.58;;;;;;;;;;4822404;29;20026;-76
2021/12/10 01:42:03;;;;;;;5.38;1.67;;;;;;;;;;4823095;29;20053;-77
2021/12/10 01:44:31;;;;;;;7.15;2.45;;;;;;;;;;4826364;29;20457;-76
2021/12/10 01:46:59;;;;;;;5.40;2.22;;;;;;;;;;4834232;29;20050;-76
2021/12/10 01:49:25;;;;;;;7.05;2.20;;;;;;;;;;4839249;29;20023;-76
2021/12/10 01:51:52;;;;;;;7.22;2.17;;;;;;;;;;4834943;29;20070;-76
2021/12/10 01:54:24;;;;;;;3.55;0.80;;;;;;;;;;4822354;29;20061;-76
2021/12/10 01:56:50;;;;;;;;;;;;;;;;;;4823259;29;20038;-77
2021/12/10 01:59:18;;;;;;;4.82;0.98;;;;;;;;;;4822742;29;20651;-76
2021/12/10 02:01:46;;;;;;;2.58;0.75;;;;;;;;;;4822328;29;20115;-76
2021/12/10 02:04:14;;;;;;;3.03;0.55;;;;;;;;;;4822639;29;20042;-76
2021/12/10 02:06:40;;;;;;;2.78;0.77;;;;;;;;;;4821893;29;20046;-76
2021/12/10 02:09:07;;;;;;;4.80;0.77;;;;;;;;;;4822311;29;20045;-76
2021/12/10 02:11:33;;;;;;;2.95;0.70;;;;;;;;;;4834355;29;20038;-76
2021/12/10 02:13:59;;;;;;;4.07;1.17;;;;;;;;;;4840420;29;20042;-76
2021/12/10 02:16:25;;;;;;;2.75;0.77;;;;;;;;;;4839986;29;20042;-76
2021/12/10 02:18:52;;;;;;;5.30;1.13;;;;;;;;;;4839710;29;20125;-77
2021/12/10 02:21:22;;;;;;;2.35;0.80;;;;;;;;;;4839323;29;20090;-77
2021/12/10 02:23:55;;;;;;;2.80;0.60;;;;;;;;;;4827313;29;20137;-76
2021/12/10 02:26:22;;;;;;;3.17;0.90;;;;;;;;;;4828454;29;20480;-77
2021/12/10 02:28:48;;;;;;;4.25;1.45;;;;;;;;;;4840047;29;20034;-76
2021/12/10 02:31:15;;;;;;;6.07;1.50;;;;;;;;;;4839873;29;20061;-77
2021/12/10 02:33:41;;;;;;;4.95;1.88;;;;;;;;;;4840375;29;20041;-76
2021/12/10 02:36:11;;;;;;;5.63;1.75;;;;;;;;;;4839981;29;20034;-76
2021/12/10 02:38:48;;;;;;;6.50;1.80;;;;;;;;;;4840580;29;20033;-76
2021/12/10 02:41:15;;;;;;;5.05;1.52;;;;;;;;;;4840102;29;20074;-77
2021/12/10 02:43:42;;;;;;;4.63;1.40;;;;;;;;;;4840291;29;20052;-77
2021/12/10 02:46:08;;;;;;;5.60;1.77;;;;;;;;;;4840375;29;20094;-77
2021/12/10 02:48:34;;;;;;;6.53;1.98;;;;;;;;;;4839531;29;20120;-77
2021/12/10 02:51:01;;;;;;;7.85;1.55;;;;;;;;;;4840063;29;20676;-77
2021/12/10 02:53:30;;;;;;;4.85;1.55;;;;;;;;;;4839264;29;20369;-76
2021/12/10 02:55:59;;;;;;;3.95;1.30;;;;;;;;;;4840313;29;20029;-76
2021/12/10 02:58:26;;;;;;;3.33;1.00;;;;;;;;;;4839627;29;20045;-77
2021/12/10 03:00:58;;;;;;;3.75;1.17;;;;;;;;;;4840310;29;20036;-76
2021/12/10 03:03:24;;;;;;;4.63;1.38;;;;;;;;;;4839306;29;20041;-76
2021/12/10 03:05:50;;;;;;;4.25;1.27;;;;;;;;;;4834397;29;20042;-77
2021/12/10 03:08:16;;;;;;;4.32;1.10;;;;;;;;;;4828722;29;20073;-77
2021/12/10 03:10:43;;;;;;;5.15;1.50;;;;;;;;;;4822028;29;20445;-76
2021/12/10 03:13:10;;;;;;;3.78;1.20;;;;;;;;;;4835770;29;20480;-76
2021/12/10 03:15:36;;;;;;;7.40;1.60;;;;;;;;;;4839911;29;20037;-76
2021/12/10 03:18:04;;;;;;;7.15;2.35;;;;;;;;;;4833849;29;20060;-76
2021/12/10 03:20:30;;;;;;;5.68;1.98;;;;;;;;;;4820980;29;20074;-77
2021/12/10 03:22:57;;;;;;;5.88;1.30;;;;;;;;;;4823643;29;20094;-77
2021/12/10 03:25:23;;;;;;;5.47;1.63;;;;;;;;;;4839649;29;20030;-76
2021/12/10 03:27:50;;;;;;;4.57;1.63;;;;;;;;;;4838105;29;20850;-76
2021/12/10 03:30:19;;;;;;;3.83;1.50;;;;;;;;;;4821047;29;20034;-76
2021/12/10 03:32:45;;;;;;;7.72;1.60;;;;;;;;;;4821172;29;20039;-77
2021/12/10 03:35:20;;;;;;;4.70;1.67;;;;;;;;;;4837641;29;20065;-77
2021/12/10 03:37:46;;;;;;;6.97;2.05;;;;;;;;;;4839173;29;20042;-77
2021/12/10 03:40:13;;;;;;;6.50;1.80;;;;;;;;;;4823243;29;20173;-76
2021/12/10 03:42:39;;;;;;;6.30;1.77;;;;;;;;;;4820969;29;20053;-77
2021/12/10 03:45:07;;;;;;;4.47;1.75;;;;;;;;;;4821213;29;20069;-77
2021/12/10 03:47:33;;;;;;;5.25;1.60;;;;;;;;;;4820981;29;20053;-76
2021/12/10 03:49:59;;;;;;;4.57;1.50;;;;;;;;;;4820761;29;20044;-76
2021/12/10 03:52:25;;;;;;;5.13;1.70;;;;;;;;;;4821069;29;20035;-77
2021/12/10 03:54:51;;;;;;;4.85;1.50;;;;;;;;;;4833817;29;20038;-76
2021/12/10 03:57:18;;;;;;;5.88;1.67;;;;;;;;;;4838946;29;20037;-76
2021/12/10 03:59:45;;;;;;;5.60;2.25;;;;;;;;;;4837850;29;20381;-76
2021/12/10 04:02:11;;;;;;;6.10;1.65;;;;;;;;;;4839071;29;20046;-76
2021/12/10 04:04:42;;;;;;;4.82;1.60;;;;;;;;;;4839223;29;20038;-76
2021/12/10 04:07:10;;;;;;;6.28;1.95;;;;;;;;;;4839206;29;20807;-76
2021/12/10 04:09:36;;;;;;;7.45;2.60;;;;;;;;;;4838763;29;20059;-76
2021/12/10 04:12:03;;;;;;;5.18;1.48;;;;;;;;;;4839437;29;20042;-76
2021/12/10 04:14:29;;;;;;;7.03;1.63;;;;;;;;;;4834905;29;20638;-77
2021/12/10 04:16:57;;;;;;;5.07;1.35;;;;;;;;;;4820710;29;20046;-76
2021/12/10 04:19:27;;;;;;;1.25;0.40;;;;;;;;;;4837952;29;20482;-76
2021/12/10 04:21:56;;;;;;;1.05;0.20;;;;;;;;;;4857215;29;20048;-77
2021/12/10 04:24:24;;;;;;;2.75;0.80;;;;;;;;;;4839598;29;20034;-77
2021/12/10 04:26:50;;;;;;;2.35;0.77;;;;;;;;;;4838567;29;20042;-76
2021/12/10 04:29:20;;;;;;;3.47;1.00;;;;;;;;;;4838801;29;20065;-76
2021/12/10 04:31:46;;;;;;;1.25;0.40;;;;;;;;;;4838328;29;20388;-77
2021/12/10 04:34:12;;;;;;;3.85;0.95;;;;;;;;;;4838770;29;20034;-77
2021/12/10 04:36:38;;;;;;;5.38;1.77;;;;;;;;;;4837949;29;20046;-77
2021/12/10 04:39:04;;;;;;;5.50;0.90;;;;;;;;;;4830860;29;20041;-76
2021/12/10 04:41:30;;;;;;;4.10;1.00;;;;;;;;;;4819903;29;20071;-77
2021/12/10 04:43:57;;;;;;;3.83;1.25;;;;;;;;;;4823230;29;20031;-77
2021/12/10 04:46:23;;;;;;;5.68;1.00;;;;;;;;;;4831155;29;20042;-76
2021/12/10 04:48:49;;;;;;;2.70;0.90;;;;;;;;;;4842121;29;20022;-76
2021/12/10 04:51:15;;;;;;;3.08;0.73;;;;;;;;;;4836537;29;20042;-76
2021/12/10 04:53:41;;;;;;;2.70;0.80;;;;;;;;;;4823687;29;20035;-77
2021/12/10 04:56:07;;;;;;;3.55;0.90;;;;;;;;;;4839051;29;20090;-76
2021/12/10 04:58:33;;;;;;;2.90;0.90;;;;;;;;;;4841844;29;20117;-77
2021/12/10 05:01:01;;;;;;;3.55;1.23;;;;;;;;;;4840892;29;20041;-77
2021/12/10 05:03:27;;;;;;;4.53;1.50;;;;;;;;;;4840774;29;20040;-77
2021/12/10 05:05:59;;;;;;;3.67;0.98;;;;;;;;;;4842088;29;20034;-76
2021/12/10 05:08:26;;;;;;;5.75;1.08;;;;;;;;;;4841376;29;20030;-76
2021/12/10 05:10:52;;;;;;;3.08;1.00;;;;;;;;;;4841905;29;20125;-77
2021/12/10 05:13:18;;;;;;;5.07;1.45;;;;;;;;;;4838395;29;20042;-77
2021/12/10 05:15:44;;;;;;;3.28;1.20;;;;;;;;;;4823393;29;20033;-76
2021/12/10 05:18:13;;;;;;;2.70;0.75;;;;;;;;;;4822826;29;20109;-76
2021/12/10 05:20:41;;;;;;;1.70;0.52;;;;;;;;;;4822836;29;20058;-77
2021/12/10 05:23:07;;;;;;;2.13;0.68;;;;;;;;;;4831419;29;20385;-77
2021/12/10 05:25:33;;;;;;;4.40;0.90;;;;;;;;;;4840237;29;20753;-76
2021/12/10 05:28:00;;;;;;;3.05;0.80;;;;;;;;;;4841685;29;20034;-76
2021/12/10 05:30:28;;;;;;;2.90;0.50;;;;;;;;;;4841597;29;20076;-76
2021/12/10 05:32:54;;;;;;;3.00;0.70;;;;;;;;;;4841668;29;20189;-76
2021/12/10 05:35:20;;;;;;;5.53;0.88;;;;;;;;;;4831485;29;20113;-76
2021/12/10 05:37:47;;;;;;;4.45;1.30;;;;;;;;;;4822985;29;20042;-76
2021/12/10 05:40:15;;;;;;;5.57;1.20;;;;;;;;;;4822817;29;20042;-77
2021/12/10 05:42:41;;;;;;;2.65;0.80;;;;;;;;;;4827567;29;20042;-77
2021/12/10 05:45:08;;;;;;;4.43;1.17;;;;;;;;;;4840798;29;20045;-76
2021/12/10 05:47:34;;;;;;;2.55;0.70;;;;;;;;;;4841319;29;20109;-77
2021/12/10 05:50:00;;;;;;;2.78;0.77;;;;;;;;;;4841270;29;20069;-77
2021/12/10 05:52:26;;;;;;;3.63;1.25;;;;;;;;;;4830714;29;20070;-77
2021/12/10 05:54:52;;;;;;;3.63;1.60;;;;;;;;;;4824131;29;20117;-76
2021/12/10 05:57:18;;;;;;;9.57;4.38;;;;;;;;;;4831505;29;20038;-77
2021/12/10 05:59:45;;;;;;;5.32;2.15;;;;;;;;;;4822408;29;20074;-76
2021/12/10 06:02:11;;;;;;;5.93;2.10;;;;;;;;;;4839610;29;20044;-77
2021/12/10 06:04:37;;;;;;;5.63;1.73;;;;;;;;;;4841032;29;20125;-77
2021/12/10 06:07:05;;;;;;;4.35;1.35;;;;;;;;;;4839500;29;20091;-77
2021/12/10 06:09:31;;;;;;;7.82;2.00;;;;;;;;;;4839487;29;20038;-76
2021/12/10 06:11:57;;;;;;;16.80;7.07;;;;;;;;;;4839754;29;20149;-77
2021/12/10 06:14:23;;;;;;;15.73;6.40;;;;;;;;;;4838403;29;20106;-77
2021/12/10 06:16:52;;;;;;;16.88;8.55;;;;;;;;;;4838811;29;20049;-77
2021/12/10 06:19:19;;;;;;;7.22;2.30;;;;;;;;;;4832376;29;20124;-77
2021/12/10 06:21:45;;;;;;;8.80;2.50;;;;;;;;;;4829710;29;20932;-76
2021/12/10 06:24:11;;;;;;;11.80;4.30;;;;;;;;;;4827960;29;20030;-77
2021/12/10 06:26:37;;;;;;;9.13;4.53;;;;;;;;;;4840428;29;20476;-76
2021/12/10 06:29:04;;;;;;;4.35;1.67;;;;;;;;;;4832697;29;20029;-76
2021/12/10 06:31:31;;;;;;;3.13;1.10;;;;;;;;;;4837326;29;20155;-77
2021/12/10 06:33:57;;;;;;;3.15;0.50;;;;;;;;;;4836305;29;20145;-77
2021/12/10 06:36:23;;;;;;;1.90;0.60;;;;;;;;;;4827999;29;20038;-77
2021/12/10 06:38:50;;;;;;;7.88;2.92;;;;;;;;;;4827466;29;20605;-76
2021/12/10 06:41:17;;;;;;;12.10;6.55;;;;;;;;;;4828211;29;20095;-77
2021/12/10 06:43:43;;;;;;;9.55;4.85;;;;;;;;;;4836841;29;20088;-76
2021/12/10 06:46:10;;;;;;;10.85;3.00;;;;;;;;;;4831210;29;20042;-76
2021/12/10 06:48:37;;;;;;;8.68;4.40;;;;;;;;;;4828793;29;20037;-76
2021/12/10 06:51:15;;;;;;;18.38;10.27;;;;;;;;;;4839266;29;20115;-77
2021/12/10 06:53:41;;;;;;;2.53;1.00;;;;;;;;;;4830470;29;20041;-76
2021/12/10 06:56:07;;;;;;;11.15;5.22;;;;;;;;;;4840202;29;20045;-76
2021/12/10 06:58:35;;;;;;;7.13;3.08;;;;;;;;;;4838642;29;20521;-77
2021/12/10 07:01:11;;;;;;;14.80;8.27;;;;;;;;;;4829060;29;20039;-76
2021/12/10 07:03:37;;;;;;;16.08;8.15;;;;;;;;;;4834123;29;20026;-76
2021/12/10 07:06:04;;;;;;;16.75;9.57;;;;;;;;;;4832428;29;20045;-76
2021/12/10 07:08:31;;;;;;;15.15;7.15;;;;;;;;;;4838944;29;20496;-77
2021/12/10 07:10:58;;;;;;;13.40;8.52;;;;;;;;;;4836657;29;20030;-76
2021/12/10 07:13:24;;;;;;;7.45;3.50;;;;;;;;;;4833297;29;20042;-77
2021/12/10 07:15:50;;;;;;;7.70;2.97;;;;;;;;;;4830510;29;20132;-76
2021/12/10 07:18:19;;;;;;;12.13;5.95;;;;;;;;;;4830171;29;20167;-76
2021/12/10 07:20:45;;;;;;;12.85;7.10;;;;;;;;;;4832449;29;20066;-76
2021/12/10 07:23:11;;;;;;;5.15;2.97;;;;;;;;;;4839218;29;20822;-77
2021/12/10 07:25:38;;;;;;;7.05;3.17;;;;;;;;;;4836859;29;20879;-76
2021/12/10 07:28:04;;;;;;;10.15;3.70;;;;;;;;;;4838114;29;20103;-77
2021/12/10 07:30:30;;;;;;;30.23;16.35;;;;;;;;;;4837067;29;20386;-76
2021/12/10 07:32:57;;;;;;;66.32;37.33;;;;;;;;;;4833928;29;20086;-76
2021/12/10 07:35:24;;;;;;;38.92;22.40;;;;;;;;;;4833993;29;20030;-77
2021/12/10 07:37:51;;;;;;;24.67;16.05;;;;;;;;;;4827702;29;20153;-77
2021/12/10 07:40:20;;;;;;;17.13;9.73;;;;;;;;;;4838504;29;20042;-77
2021/12/10 07:42:47;;;;;;;9.77;5.45;;;;;;;;;;4838650;29;20049;-76
2021/12/10 07:45:13;;;;;;;7.72;4.60;;;;;;;;;;4838857;29;20042;-76
2021/12/10 07:47:39;;;;;;;13.10;6.22;;;;;;;;;;4837873;29;20125;-76
2021/12/10 07:50:08;;;;;;;11.88;7.63;;;;;;;;;;4837563;29;20063;-77
2021/12/10 07:52:34;;;;;;;13.80;8.40;;;;;;;;;;4832902;29;20038;-77
2021/12/10 07:55:03;;;;;;;12.18;7.20;;;;;;;;;;4837878;29;20026;-77
2021/12/10 07:57:29;;;;;;;16.02;9.77;;;;;;;;;;4826090;29;20042;-77
2021/12/10 07:59:55;;;;;;;14.88;9.32;;;;;;;;;;4831758;29;20048;-77
2021/12/10 08:02:21;;;;;;;10.90;6.75;;;;;;;;;;4836418;29;20046;-76
2021/12/10 08:04:47;;;;;;;11.38;7.32;;;;;;;;;;4832589;29;20038;-77
2021/12/10 08:07:14;;;;;;;11.60;5.47;;;;;;;;;;4836008;29;20045;-77
2021/12/10 08:09:41;;;;;;;9.90;5.65;;;;;;;;;;4838005;29;20140;-76
2021/12/10 08:12:07;;;;;;;10.30;5.07;;;;;;;;;;4838162;29;20495;-76
2021/12/10 08:14:34;;;;;;;9.77;4.78;;;;;;;;;;4822564;29;20130;-77
2021/12/10 08:17:00;;;;;;;9.45;5.47;;;;;;;;;;4837591;29;20098;-77
2021/12/10 08:19:26;;;;;;;9.68;4.95;;;;;;;;;;4834248;29;20161;-77
2021/12/10 08:21:52;;;;;;;9.50;5.78;;;;;;;;;;4840362;29;20574;-77
2021/12/10 08:24:18;;;;;;;7.40;3.65;;;;;;;;;;4842293;29;20044;-76
2021/12/10 08:26:44;;;;;;;7.97;4.30;;;;;;;;;;4836842;29;20114;-76
2021/12/10 08:29:11;;;;;;;13.45;6.47;;;;;;;;;;4839833;29;20060;-76
2021/12/10 08:31:37;;;;;;;11.40;5.65;;;;;;;;;;4841367;29;20029;-76
2021/12/10 08:34:04;;;;;;;10.48;5.97;;;;;;;;;;4838380;29;20035;-76
2021/12/10 08:36:33;;;;;;;10.35;5.50;;;;;;;;;;4834594;29;20103;-77
2021/12/10 08:38:59;;;;;;;10.10;5.10;;;;;;;;;;4834979;29;20034;-77
2021/12/10 08:41:28;;;;;;;11.57;7.35;;;;;;;;;;4830986;29;20189;-76
2021/12/10 08:43:56;;;;;;;14.10;7.50;;;;;;;;;;4837038;29;20038;-76
2021/12/10 08:46:23;;;;;;;17.40;9.05;;;;;;;;;;4833467;29;20034;-77
2021/12/10 08:48:49;;;;;;;9.85;6.90;;;;;;;;;;4836655;29;20060;-76
2021/12/10 08:51:25;;;;;;;14.27;8.70;;;;;;;;;;4828083;29;20042;-76
2021/12/10 08:53:52;;;;;;;18.67;10.70;;;;;;;;;;4827688;29;20065;-77
2021/12/10 08:56:18;;;;;;;10.57;6.47;;;;;;;;;;4834392;29;20144;-77
2021/12/10 08:58:44;;;;;;;12.95;8.43;;;;;;;;;;4837325;29;20026;-77
2021/12/10 09:01:12;;;;;;;18.98;11.77;;;;;;;;;;4840166;29;20046;-77
2021/12/10 09:03:38;;;;;;;22.60;13.90;;;;;;;;;;4841691;29;20483;-76
2021/12/10 09:06:05;;;;;;;18.23;12.23;;;;;;;;;;4841337;29;20125;-76
2021/12/10 09:08:31;;;;;;;22.40;13.32;;;;;;;;;;4833791;29;20045;-77
2021/12/10 09:10:57;;;;;;;17.30;12.48;;;;;;;;;;4831796;29;20045;-76
2021/12/10 09:13:25;;;;;;;22.02;15.68;;;;;;;;;;4841662;29;20038;-77
2021/12/10 09:15:56;;;;;;;18.38;11.77;;;;;;;;;;4841443;29;20030;-76
2021/12/10 09:18:23;;;;;;;19.05;11.43;;;;;;;;;;4841340;29;20140;-77
2021/12/10 09:20:50;;;;;;;39.00;22.55;;;;;;;;;;4840929;29;20631;-76
2021/12/10 09:23:18;;;;;;;30.70;18.73;;;;;;;;;;4841160;29;20034;-76
2021/12/10 09:25:44;;;;;;;26.67;15.02;;;;;;;;;;4832447;29;20038;-77
2021/12/10 09:28:10;;;;;;;20.30;12.63;;;;;;;;;;4822598;29;20034;-77
2021/12/10 09:30:38;;;;;;;15.55;8.73;;;;;;;;;;4835632;29;20381;-76
2021/12/10 09:33:04;;;;;;;20.15;13.25;;;;;;;;;;4837585;29;20432;-76
2021/12/10 09:35:31;;;;;;;18.92;11.75;;;;;;;;;;4840461;29;20092;-76
2021/12/10 09:37:57;;;;;;;18.65;12.90;;;;;;;;;;4833116;29;20070;-76
2021/12/10 09:40:26;;;;;;;19.88;14.10;;;;;;;;;;4840929;29;20120;-76
2021/12/10 09:42:52;;;;;;;27.95;16.45;;;;;;;;;;4840236;29;20120;-77
2021/12/10 09:45:20;;;;;;;19.05;10.38;;;;;;;;;;4840944;29;20042;-76
2021/12/10 09:47:46;;;;;;;20.52;10.77;;;;;;;;;;4839955;29;20434;-76
2021/12/10 09:50:14;;;;;;;18.83;12.40;;;;;;;;;;4841016;29;20048;-76
2021/12/10 09:52:40;;;;;;;19.42;12.30;;;;;;;;;;4836428;29;20137;-76
2021/12/10 09:55:08;;;;;;;16.83;9.55;;;;;;;;;;4829963;29;20631;-77
2021/12/10 09:57:35;;;;;;;20.27;9.98;;;;;;;;;;4835949;29;20035;-77
2021/12/10 10:00:03;;;;;;;16.25;8.77;;;;;;;;;;4833235;29;20112;-76
2021/12/10 10:02:30;;;;;;;18.58;11.40;;;;;;;;;;4836538;29;20483;-77
2021/12/10 10:04:56;;;;;;;14.45;8.20;;;;;;;;;;4839847;29;20042;-76
2021/12/10 10:07:27;;;;;;;11.52;7.38;;;;;;;;;;4836708;29;20480;-77
2021/12/10 10:09:55;;;;;;;16.75;9.05;;;;;;;;;;4833204;29;20036;-77
2021/12/10 10:12:23;;;;;;;12.23;8.05;;;;;;;;;;4824040;29;20038;-77
2021/12/10 10:14:50;;;;;;;13.50;10.10;;;;;;;;;;4842151;29;20113;-77
2021/12/10 10:17:16;;;;;;;20.67;12.73;;;;;;;;;;4836503;29;20042;-76
2021/12/10 10:19:42;;;;;;;14.27;9.10;;;;;;;;;;4838319;29;20682;-76
2021/12/10 10:22:11;;;;;;;16.92;11.07;;;;;;;;;;4838041;29;20418;-77
2021/12/10 10:24:37;;;;;;;14.35;8.02;;;;;;;;;;4841116;29;20476;-76
2021/12/10 10:32:17;;;;;;;20.08;13.23;;;;;;;;;;5281308;24;20078;-77
2021/12/10 10:35:13;;;;;;;14.05;9.35;;;;;;;;;;4801846;29;20035;-77
2021/12/10 10:37:42;;;;;;;17.73;11.25;;;;;;;;;;4799020;29;20060;-77
2021/12/10 10:48:20;;;;;;;20.80;12.60;;;;;;;;;;4838680;29;20111;-79
2021/12/10 10:51:00;;;;;;;18.20;13.25;;;;;;;;;;4827415;29;20473;-79
2021/12/10 10:53:27;;;;;;;15.63;10.23;;;;;;;;;;4818113;29;20029;-80
2021/12/10 10:56:02;;;;;;;20.05;13.23;;;;;;;;;;4839016;29;20396;-79
2021/12/10 10:58:32;;;;;;;11.60;7.82;;;;;;;;;;4819172;29;20034;-79
2021/12/10 11:01:13;;;;;;;15.27;10.82;;;;;;;;;;5066798;28;20568;-79
2021/12/10 11:03:51;;;;;;;18.92;14.00;;;;;;;;;;5060842;28;20856;-79
2021/12/10 11:06:21;;;;;;;25.88;14.63;;;;;;;;;;5057929;28;20044;-79
2021/12/10 11:08:57;;;;;;;15.90;11.73;;;;;;;;;;5045043;28;20738;-78
2021/12/10 11:11:25;;;;;;;17.13;11.68;;;;;;;;;;5030029;28;20030;-78
2021/12/10 11:14:00;;;;;;;20.65;15.13;;;;;;;;;;5046362;28;20032;-78
2021/12/10 11:16:27;;;;;;;28.10;19.05;;;;;;;;;;5046352;28;20040;-78
2021/12/10 11:18:55;;;;;;;21.20;14.73;;;;;;;;;;5045546;28;20025;-78
2021/12/10 11:21:39;;;;;;;19.25;12.93;;;;;;;;;;5043589;28;20040;-78
2021/12/10 11:24:19;;;;;;;22.52;14.85;;;;;;;;;;5027751;28;20379;-77
2021/12/10 11:26:59;;;;;;;21.15;16.23;;;;;;;;;;5030838;28;20032;-77
2021/12/10 11:29:57;;;;;;;18.55;12.60;;;;;;;;;;5043898;28;20045;-78
2021/12/10 11:32:26;;;;;;;24.02;15.77;;;;;;;;;;5039595;28;20041;-78
2021/12/10 11:35:04;;;;;;;20.55;13.20;;;;;;;;;;5046366;28;20043;-79
2021/12/10 11:37:46;;;;;;;18.80;14.07;;;;;;;;;;5045246;28;20125;-79
2021/12/10 11:40:33;;;;;;;20.25;14.63;;;;;;;;;;5042506;28;20491;-78
2021/12/10 11:43:05;;;;;;;23.88;16.15;;;;;;;;;;5037992;28;20033;-79
2021/12/10 11:45:49;;;;;;;30.23;22.10;;;;;;;;;;5045634;28;20044;-79
2021/12/10 11:48:24;;;;;;;20.77;15.88;;;;;;;;;;5040455;28;20795;-79
2021/12/10 11:50:58;;;;;;;44.50;30.67;;;;;;;;;;5041308;28;20022;-78
2021/12/10 11:53:24;;;;;;;25.85;18.73;;;;;;;;;;5044419;28;20032;-78
2021/12/10 11:55:54;;;;;;;18.92;12.70;;;;;;;;;;5042134;28;20071;-78
2021/12/10 11:58:20;;;;;;;15.45;9.30;;;;;;;;;;5041428;28;20037;-78
2021/12/10 12:00:47;;;;;;;11.93;8.25;;;;;;;;;;5027197;28;20407;-77
2021/12/10 12:03:13;;;;;;;38.97;24.27;;;;;;;;;;5054528;28;20020;-77
2021/12/10 12:05:43;;;;;;;27.13;19.15;;;;;;;;;;5046212;28;20030;-78
2021/12/10 12:08:13;;;;;;;22.25;15.27;;;;;;;;;;5045798;28;20072;-76
2021/12/10 12:11:00;;;;;;;20.90;14.50;;;;;;;;;;5040056;28;20072;-76
2021/12/10 12:13:37;;;;;;;23.73;16.65;;;;;;;;;;5022777;28;20049;-76
2021/12/10 12:16:07;;;;;;;23.15;15.63;;;;;;;;;;5028776;28;20779;-76
2021/12/10 12:18:33;;;;;;;30.27;21.90;;;;;;;;;;5027386;28;20083;-77
2021/12/10 12:20:59;;;;;;;37.80;27.52;;;;;;;;;;5026903;28;20049;-77
2021/12/10 12:26:29;;;;;;;32.28;23.75;;;;;;;;;;5019042;28;20095;-78
2021/12/10 12:29:04;;;;;;;42.20;29.92;;;;;;;;;;5028228;28;20037;-78
2021/12/10 12:31:31;;;;;;;30.10;22.77;;;;;;;;;;5031326;28;20021;-78
2021/12/10 12:34:00;;;;;;;22.38;15.55;;;;;;;;;;5028920;28;20149;-78
2021/12/10 12:36:33;;;;;;;26.92;17.20;;;;;;;;;;5022971;28;20029;-78
2021/12/10 12:39:00;;;;;;;43.67;28.02;;;;;;;;;;5024271;28;20033;-78
2021/12/10 12:41:28;;;;;;;52.70;26.90;;;;;;;;;;5024213;28;20471;-77
2021/12/10 12:44:12;;;;;;;44.28;25.15;;;;;;;;;;5038334;28;20036;-77
2021/12/10 12:46:57;;;;;;;36.53;22.10;;;;;;;;;;5025689;28;20101;-78
2021/12/10 12:49:23;;;;;;;34.47;20.80;;;;;;;;;;5031481;28;20103;-77
2021/12/10 12:52:06;;;;;;;46.95;23.27;;;;;;;;;;5022459;28;20037;-78
2021/12/10 12:54:33;;;;;;;37.38;22.85;;;;;;;;;;5026150;28;20034;-77
2021/12/10 12:57:01;;;;;;;33.60;22.13;;;;;;;;;;5024239;28;20073;-77
2021/12/10 12:59:28;;;;;;;40.65;28.48;;;;;;;;;;5020917;28;20088;-76
2021/12/10 13:01:57;;;;;;;40.25;24.17;;;;;;;;;;5030560;28;20026;-77
2021/12/10 13:04:28;;;;;;;33.83;22.40;;;;;;;;;;5020883;28;20052;-77
2021/12/10 13:06:56;;;;;;;35.75;24.10;;;;;;;;;;5030056;28;20030;-77
2021/12/10 13:09:26;;;;;;;33.45;21.80;;;;;;;;;;5027636;28;20537;-77
2021/12/10 13:12:01;;;;;;;29.20;16.98;;;;;;;;;;5032154;28;20032;-77
2021/12/10 13:14:33;;;;;;;22.30;13.07;;;;;;;;;;5022597;28;20038;-76
2021/12/10 13:17:19;;;;;;;17.25;10.27;;;;;;;;;;5016667;28;20553;-76
2021/12/10 13:19:46;;;;;;;19.98;12.48;;;;;;;;;;5016053;28;20737;-76
2021/12/10 13:22:20;;;;;;;34.28;26.05;;;;;;;;;;5017110;28;20037;-76
2021/12/10 13:24:48;;;;;;;37.20;24.30;;;;;;;;;;5025619;28;20049;-76
2021/12/10 13:27:14;;;;;;;25.67;19.20;;;;;;;;;;5022911;28;20030;-76
2021/12/10 13:29:40;;;;;;;25.05;16.17;;;;;;;;;;5026787;28;20044;-76
2021/12/10 13:32:09;;;;;;;35.25;21.50;;;;;;;;;;5023913;28;20676;-77
2021/12/10 13:34:35;;;;;;;27.98;15.48;;;;;;;;;;5025754;28;20060;-76
2021/12/10 13:37:04;;;;;;;28.15;20.92;;;;;;;;;;5028289;28;20029;-77
2021/12/10 13:39:31;;;;;;;28.33;17.08;;;;;;;;;;5024084;28;20064;-76
2021/12/10 13:54:54;;;;;;;37.65;22.98;;;;;;;;;;5079426;27;20400;-76
2021/12/10 13:57:20;;;;;;;35.10;18.77;;;;;;;;;;5052884;28;20417;-76
2021/12/10 13:59:55;;;;;;;34.65;23.30;;;;;;;;;;5060991;28;20037;-75
2021/12/10 14:02:31;;;;;;;35.70;19.58;;;;;;;;;;5062135;28;20079;-75
2021/12/10 14:04:59;;;;;;;35.42;22.70;;;;;;;;;;5063010;28;20106;-76
2021/12/10 14:07:25;;;;;;;40.17;21.98;;;;;;;;;;5063567;28;20021;-76
2021/12/10 14:09:53;;;;;;;50.67;31.88;;;;;;;;;;5063320;28;20047;-76
2021/12/10 14:12:27;;;;;;;40.17;23.13;;;;;;;;;;5059849;28;20031;-76
2021/12/10 14:15:02;;;;;;;51.65;31.77;;;;;;;;;;5061086;28;20759;-76
2021/12/10 14:17:29;;;;;;;36.88;25.23;;;;;;;;;;5059319;28;20037;-76
2021/12/10 14:19:57;;;;;;;38.80;23.73;;;;;;;;;;5058420;28;20089;-76
2021/12/10 14:22:38;;;;;;;54.55;33.95;;;;;;;;;;5059872;28;20115;-76
2021/12/10 14:25:13;;;;;;;32.30;21.50;;;;;;;;;;5063286;28;20028;-76
2021/12/10 14:27:47;;;;;;;30.33;20.67;;;;;;;;;;5062260;28;20060;-76
2021/12/10 14:30:19;;;;;;;31.40;23.25;;;;;;;;;;5059774;28;20391;-76
2021/12/10 14:32:56;;;;;;;24.60;18.02;;;;;;;;;;5064533;28;20028;-76
2021/12/10 14:35:24;;;;;;;31.70;20.52;;;;;;;;;;5060610;28;20043;-76
2021/12/10 14:37:51;;;;;;;42.55;28.38;;;;;;;;;;5061948;28;20090;-76
2021/12/10 14:40:18;;;;;;;44.40;25.95;;;;;;;;;;5064054;28;20071;-76
2021/12/10 14:43:02;;;;;;;49.88;31.73;;;;;;;;;;5061910;28;20043;-76
2021/12/10 14:45:28;;;;;;;50.83;31.92;;;;;;;;;;5056559;28;20033;-75
2021/12/10 14:48:09;;;;;;;45.45;30.88;;;;;;;;;;5063853;28;20108;-75
2021/12/10 14:50:36;;;;;;;41.70;26.67;;;;;;;;;;5064264;28;20033;-77
2021/12/10 14:53:23;;;;;;;51.22;28.42;;;;;;;;;;5063041;28;20096;-76
2021/12/10 14:55:49;;;;;;;59.33;33.85;;;;;;;;;;5037432;28;20040;-76
2021/12/10 14:58:16;;;;;;;61.25;31.52;;;;;;;;;;5042288;28;20076;-76
2021/12/10 15:00:45;;;;;;;51.80;27.88;;;;;;;;;;5051052;28;20141;-76
2021/12/10 15:03:17;;;;;;;44.58;28.48;;;;;;;;;;5044296;28;20041;-76
2021/12/10 15:05:50;;;;;;;53.60;33.70;;;;;;;;;;5051621;28;20559;-76
2021/12/10 15:08:31;;;;;;;61.60;31.95;;;;;;;;;;5050550;28;20047;-76
2021/12/10 15:10:59;;;;;;;75.73;41.00;;;;;;;;;;5039378;28;20120;-75
2021/12/10 15:13:29;;;;;;;55.95;30.08;;;;;;;;;;5031051;28;20540;-76
2021/12/10 15:16:27;;;;;;;58.40;32.30;;;;;;;;;;5040465;28;20035;-75
2021/12/10 15:18:55;;;;;;;53.63;28.08;;;;;;;;;;5022450;28;20380;-75